Time;durP1;ratioP1;P1;durP2;ratioP2;P2;SDS_P1;SDS_P2;PMS_P1;PMS_P2;Temp;Humidity;BMP_temperature;BMP_pressure;BME280_temperature;BME280_humidity;BME280_pressure;Samples;Min_cycle;Max_cycle;Signal;HPM_P1;HPM_P2
2023/07/29 00:00:40;;;;;;;;;;;19.40;99.90;;;;;;6021597;23;19930;-74
2023/07/29 00:03:05;;;;;;;;;;;19.40;99.90;;;;;;6022366;23;19934;-74
2023/07/29 00:05:31;;;;;;;;;;;19.40;99.90;;;;;;6024416;23;19951;-75
2023/07/29 00:07:56;;;;;;;;;;;19.30;99.90;;;;;;6019725;23;20388;-75
2023/07/29 00:10:22;;;;;;;;;;;19.30;99.90;;;;;;6024520;23;20428;-75
2023/07/29 00:12:48;;;;;;;;;;;19.30;99.90;;;;;;6019713;23;20007;-75
2023/07/29 00:15:13;;;;;;;;;;;19.30;99.90;;;;;;6024350;23;20019;-75
2023/07/29 00:17:39;;;;;;;;;;;19.30;99.90;;;;;;6042952;23;20256;-75
2023/07/29 00:20:05;;;;;;;;;;;19.30;99.90;;;;;;6022176;23;20111;-75
2023/07/29 00:22:31;;;;;;;;;;;19.10;99.90;;;;;;6022993;23;20217;-75
2023/07/29 00:24:59;;;;;;;;;;;19.10;99.90;;;;;;6023936;23;19938;-75
2023/07/29 00:27:25;;;;;;;;;;;19.10;99.90;;;;;;6045669;23;20231;-75
2023/07/29 00:29:51;;;;;;;;;;;19.10;99.90;;;;;;6028148;23;19926;-75
2023/07/29 00:32:16;;;;;;;;;;;19.00;99.90;;;;;;6032995;23;19921;-75
2023/07/29 00:34:42;;;;;;;;;;;19.00;99.90;;;;;;6026620;23;19942;-75
2023/07/29 00:37:07;;;;;;;;;;;19.00;99.90;;;;;;6028637;23;19991;-68
2023/07/29 00:39:33;;;;;;;;;;;19.00;99.90;;;;;;6019701;23;19926;-68
2023/07/29 00:41:58;;;;;;;;;;;19.00;99.90;;;;;;6015136;23;20610;-68
2023/07/29 00:44:24;;;;;;;;;;;19.00;99.90;;;;;;6021583;23;20430;-67
2023/07/29 00:46:51;;;;;;;;;;;19.00;99.90;;;;;;6018652;23;19941;-67
2023/07/29 00:49:17;;;;;;;;;;;19.00;99.90;;;;;;6017738;23;20354;-67
2023/07/29 00:51:42;;;;;;;;;;;19.00;99.90;;;;;;6020747;23;19930;-68
2023/07/29 00:54:08;;;;;;;;;;;19.00;99.90;;;;;;6020724;23;19949;-67
2023/07/29 00:56:34;;;;;;;;;;;19.00;99.90;;;;;;6021126;23;20420;-68
2023/07/29 00:59:01;;;;;;;;;;;18.90;99.90;;;;;;6015277;23;20352;-68
2023/07/29 01:01:29;;;;;;;;;;;18.90;99.90;;;;;;6019682;23;19925;-69
2023/07/29 01:03:55;;;;;;;;;;;18.90;99.90;;;;;;6021541;23;19960;-67
2023/07/29 01:06:26;;;;;;;;;;;18.90;99.90;;;;;;6016626;23;20709;-68
2023/07/29 01:09:03;;;;;;;;;;;18.90;99.90;;;;;;6015769;23;19957;-67
2023/07/29 01:11:47;;;;;;;;;;;18.90;99.90;;;;;;6026347;23;19928;-74
2023/07/29 01:14:19;;;;;;;;;;;18.90;99.90;;;;;;6021441;23;20323;-68
2023/07/29 01:16:50;;;;;;;;;;;18.90;99.90;;;;;;6020668;23;20008;-68
2023/07/29 01:19:34;;;;;;;;;;;18.90;99.90;;;;;;6021892;23;19975;-68
2023/07/29 01:22:01;;;;;;;;;;;18.90;99.90;;;;;;6021592;23;19938;-68
2023/07/29 01:24:26;;;;;;;;;;;18.90;99.90;;;;;;6023274;23;20011;-67
2023/07/29 01:26:52;;;;;;;;;;;18.90;99.90;;;;;;6021581;23;20008;-67
2023/07/29 01:29:17;;;;;;;;;;;18.90;99.90;;;;;;6019172;23;20325;-68
2023/07/29 01:31:44;;;;;;;;;;;18.90;99.90;;;;;;6024288;23;19930;-67
2023/07/29 01:34:16;;;;;;;;;;;18.90;99.90;;;;;;6025894;23;19941;-67
2023/07/29 01:36:42;;;;;;;;;;;18.90;99.90;;;;;;6021203;23;20825;-69
2023/07/29 01:39:11;;;;;;;;;;;18.80;99.90;;;;;;6021023;23;19936;-68
2023/07/29 01:41:37;;;;;;;;;;;18.80;99.90;;;;;;6023064;23;19966;-68
2023/07/29 01:44:03;;;;;;;;;;;18.80;99.90;;;;;;6005925;23;20493;-68
2023/07/29 01:46:28;;;;;;;;;;;18.80;99.90;;;;;;6022908;23;19930;-68
2023/07/29 01:48:54;;;;;;;;;;;18.70;99.90;;;;;;6020179;23;19927;-68
2023/07/29 01:51:20;;;;;;;;;;;18.70;99.90;;;;;;6031003;23;20595;-74
2023/07/29 01:53:46;;;;;;;;;;;18.80;99.90;;;;;;6033083;23;20003;-74
2023/07/29 01:56:11;;;;;;;;;;;18.80;99.90;;;;;;6032115;23;20338;-76
2023/07/29 01:58:37;;;;;;;;;;;18.80;99.90;;;;;;6031779;23;20426;-74
2023/07/29 02:01:02;;;;;;;;;;;18.80;99.90;;;;;;6032346;23;19928;-75
2023/07/29 02:03:28;;;;;;;;;;;18.80;99.90;;;;;;6032650;23;19933;-74
2023/07/29 02:05:53;;;;;;;;;;;18.80;99.90;;;;;;6031079;23;19926;-75
2023/07/29 02:08:19;;;;;;;;;;;18.70;99.90;;;;;;6034501;23;20666;-75
2023/07/29 02:10:45;;;;;;;;;;;18.70;99.90;;;;;;6033574;23;19958;-75
2023/07/29 02:13:10;;;;;;;;;;;18.60;99.90;;;;;;6031865;23;20115;-74
2023/07/29 02:15:36;;;;;;;;;;;18.50;99.90;;;;;;6035324;23;19932;-74
2023/07/29 02:18:03;;;;;;;;;;;18.50;99.90;;;;;;6030902;23;19949;-74
2023/07/29 02:20:28;;;;;;;;;;;18.40;99.90;;;;;;6031146;23;19933;-75
2023/07/29 02:22:54;;;;;;;;;;;18.40;99.90;;;;;;6036078;23;19987;-74
2023/07/29 02:25:20;;;;;;;;;;;18.40;99.90;;;;;;6035700;23;19938;-74
2023/07/29 02:27:45;;;;;;;;;;;18.40;99.90;;;;;;6032224;23;19941;-74
2023/07/29 02:30:12;;;;;;;;;;;18.40;99.90;;;;;;6029546;23;19935;-74
2023/07/29 02:32:38;;;;;;;;;;;18.40;99.90;;;;;;6034368;23;19928;-74
2023/07/29 02:35:04;;;;;;;;;;;18.40;99.90;;;;;;6034350;23;20022;-74
2023/07/29 02:37:30;;;;;;;;;;;18.40;99.90;;;;;;6028384;23;19951;-75
2023/07/29 02:39:55;;;;;;;;;;;18.50;99.90;;;;;;6032311;23;19967;-74
2023/07/29 02:42:21;;;;;;;;;;;18.50;99.90;;;;;;6027398;23;19935;-75
2023/07/29 02:44:46;;;;;;;;;;;18.60;99.90;;;;;;6027046;23;19970;-75
2023/07/29 02:47:12;;;;;;;;;;;18.60;99.90;;;;;;6031875;23;20518;-75
2023/07/29 02:49:37;;;;;;;;;;;18.60;99.90;;;;;;6033674;23;19929;-74
2023/07/29 02:52:03;;;;;;;;;;;18.60;99.90;;;;;;6034395;23;19934;-74
2023/07/29 02:54:28;;;;;;;;;;;18.70;99.90;;;;;;6031804;23;19926;-74
2023/07/29 02:56:54;;;;;;;;;;;18.70;99.90;;;;;;6032666;23;20834;-75
2023/07/29 02:59:19;;;;;;;;;;;18.70;99.90;;;;;;6029521;23;19962;-75
2023/07/29 03:01:45;;;;;;;;;;;18.70;99.90;;;;;;6028352;23;19935;-68
2023/07/29 03:04:12;;;;;;;;;;;18.60;99.90;;;;;;6023562;23;19931;-68
2023/07/29 03:06:38;;;;;;;;;;;18.70;99.90;;;;;;6020337;23;19937;-68
2023/07/29 03:09:04;;;;;;;;;;;18.60;99.90;;;;;;6021806;23;19926;-67
2023/07/29 03:11:30;;;;;;;;;;;18.60;99.90;;;;;;6024793;23;20014;-67
2023/07/29 03:13:56;;;;;;;;;;;18.60;99.90;;;;;;6018898;23;20417;-68
2023/07/29 03:16:22;;;;;;;;;;;18.60;99.90;;;;;;6022408;23;19930;-68
2023/07/29 03:18:48;;;;;;;;;;;18.60;99.90;;;;;;6022833;23;19953;-68
2023/07/29 03:21:13;;;;;;;;;;;18.60;99.90;;;;;;6020813;23;19937;-67
2023/07/29 03:23:39;;;;;;;;;;;18.50;99.90;;;;;;6023318;23;20261;-68
2023/07/29 03:26:10;;;;;;;;;;;18.40;99.90;;;;;;6022659;23;19932;-68
2023/07/29 03:28:36;;;;;;;;;;;18.30;99.90;;;;;;5996698;23;19969;-68
2023/07/29 03:31:02;;;;;;;;;;;18.30;99.90;;;;;;6020016;23;19929;-67
2023/07/29 03:33:28;;;;;;;;;;;18.20;99.90;;;;;;6022934;23;20513;-67
2023/07/29 03:35:53;;;;;;;;;;;18.20;99.90;;;;;;6019995;23;19937;-67
2023/07/29 03:38:19;;;;;;;;;;;18.20;99.90;;;;;;6022635;23;20420;-68
2023/07/29 03:40:45;;;;;;;;;;;18.20;99.90;;;;;;6020127;23;19921;-69
2023/07/29 03:43:10;;;;;;;;;;;18.20;99.90;;;;;;6019697;23;20037;-68
2023/07/29 03:45:36;;;;;;;;;;;18.10;99.90;;;;;;6020983;23;20348;-67
2023/07/29 03:48:02;;;;;;;;;;;18.10;99.90;;;;;;6022135;23;20363;-68
2023/07/29 03:50:28;;;;;;;;;;;18.10;99.90;;;;;;5996903;23;19933;-67
2023/07/29 03:52:54;;;;;;;;;;;18.20;99.90;;;;;;6021995;23;19930;-67
2023/07/29 03:55:20;;;;;;;;;;;18.20;99.90;;;;;;6021987;23;19928;-68
2023/07/29 03:57:45;;;;;;;;;;;18.20;99.90;;;;;;6023378;23;20869;-67
2023/07/29 04:00:11;;;;;;;;;;;18.20;99.90;;;;;;6019620;23;19934;-74
2023/07/29 04:02:37;;;;;;;;;;;18.20;99.90;;;;;;6022333;23;20315;-74
2023/07/29 04:05:03;;;;;;;;;;;18.20;99.90;;;;;;5998335;23;19932;-74
2023/07/29 04:07:29;;;;;;;;;;;18.20;99.90;;;;;;6022568;23;19925;-74
2023/07/29 04:09:54;;;;;;;;;;;18.30;99.90;;;;;;6021561;23;20179;-74
2023/07/29 04:12:21;;;;;;;;;;;18.30;99.90;;;;;;6024542;23;20014;-74
2023/07/29 04:14:47;;;;;;;;;;;18.40;99.90;;;;;;6024527;23;19930;-74
2023/07/29 04:17:12;;;;;;;;;;;18.40;99.90;;;;;;6022872;23;19959;-74
2023/07/29 04:19:38;;;;;;;;;;;18.50;99.90;;;;;;6023471;23;19930;-74
2023/07/29 04:22:03;;;;;;;;;;;18.50;99.90;;;;;;6021947;23;19932;-74
2023/07/29 04:24:29;;;;;;;;;;;18.60;99.90;;;;;;6022159;23;20108;-74
2023/07/29 04:26:54;;;;;;;;;;;18.70;99.90;;;;;;6023201;23;20332;-74
2023/07/29 04:29:20;;;;;;;;;;;18.80;99.90;;;;;;6023718;23;19928;-74
2023/07/29 04:31:46;;;;;;;;;;;18.80;99.90;;;;;;6023779;23;20004;-74
2023/07/29 04:34:11;;;;;;;;;;;18.90;99.90;;;;;;6024386;23;19954;-74
2023/07/29 04:36:37;;;;;;;;;;;18.90;99.90;;;;;;6022622;23;20371;-74
2023/07/29 04:39:02;;;;;;;;;;;18.90;99.90;;;;;;5996201;23;20067;-74
2023/07/29 04:41:28;;;;;;;;;;;18.90;99.90;;;;;;6021447;23;20002;-74
2023/07/29 04:43:53;;;;;;;;;;;19.00;99.90;;;;;;6020288;23;20597;-74
2023/07/29 04:46:19;;;;;;;;;;;19.10;99.90;;;;;;6024210;23;19925;-74
2023/07/29 04:48:44;;;;;;;;;;;19.10;99.90;;;;;;6023540;23;19998;-74
2023/07/29 04:51:09;;;;;;;;;;;19.20;99.90;;;;;;6022332;23;19935;-74
2023/07/29 04:53:36;;;;;;;;;;;19.30;99.90;;;;;;6023412;23;20827;-74
2023/07/29 04:56:02;;;;;;;;;;;19.40;99.90;;;;;;6022588;23;19920;-75
2023/07/29 04:58:29;;;;;;;;;;;19.50;99.90;;;;;;6022763;23;19948;-75
2023/07/29 05:00:55;;;;;;;;;;;19.60;99.90;;;;;;5994997;23;19942;-74
2023/07/29 05:03:21;;;;;;;;;;;19.80;99.90;;;;;;6021193;23;19929;-74
2023/07/29 05:05:46;;;;;;;;;;;19.90;99.90;;;;;;6024370;23;20564;-74
2023/07/29 05:08:11;;;;;;;;;;;20.00;99.90;;;;;;6021086;23;20373;-75
2023/07/29 05:10:37;;;;;;;;;;;20.20;99.90;;;;;;6021015;23;19937;-75
2023/07/29 05:13:03;;;;;;;;;;;20.30;99.90;;;;;;6020576;23;20348;-74
2023/07/29 05:15:28;;;;;;;;;;;20.30;99.90;;;;;;6023042;23;19930;-74
2023/07/29 05:17:54;;;;;;;;;;;20.40;99.90;;;;;;6023371;23;20811;-76
2023/07/29 05:20:19;;;;;;;;;;;20.50;99.90;;;;;;5997648;23;20357;-74
2023/07/29 05:22:45;;;;;;;;;;;20.60;99.90;;;;;;6023806;23;20427;-75
2023/07/29 05:25:10;;;;;;;;;;;20.60;99.90;;;;;;6022152;23;20286;-75
2023/07/29 05:27:36;;;;;;;;;;;20.80;99.90;;;;;;6022154;23;19956;-75
2023/07/29 05:30:01;;;;;;;;;;;20.80;99.90;;;;;;6022215;23;20338;-75
2023/07/29 05:32:27;;;;;;;;;;;20.90;99.90;;;;;;6020614;23;20584;-68
2023/07/29 05:34:52;;;;;;;;;;;21.00;99.90;;;;;;6019622;23;19945;-69
2023/07/29 05:37:18;;;;;;;;;;;21.10;99.90;;;;;;6020401;23;19971;-68
2023/07/29 05:39:43;;;;;;;;;;;21.10;99.90;;;;;;6019148;23;19967;-68
2023/07/29 05:42:09;;;;;;;;;;;21.20;99.90;;;;;;6020416;23;19926;-70
2023/07/29 05:44:35;;;;;;;;;;;21.40;99.90;;;;;;6020319;23;20286;-69
2023/07/29 05:47:00;;;;;;;;;;;21.50;99.90;;;;;;6020594;23;19925;-70
2023/07/29 05:49:25;;;;;;;;;;;21.70;99.90;;;;;;6022480;23;20089;-74
2023/07/29 05:51:52;;;;;;;;;;;21.80;99.90;;;;;;6025155;23;20258;-73
2023/07/29 05:54:18;;;;;;;;;;;22.00;99.90;;;;;;6023808;23;20016;-74
2023/07/29 05:56:43;;;;;;;;;;;22.10;99.90;;;;;;5998267;23;19932;-74
2023/07/29 05:59:09;;;;;;;;;;;22.20;99.90;;;;;;6024068;23;19926;-74
2023/07/29 06:01:34;;;;;;;;;;;22.30;99.90;;;;;;6013290;23;20643;-72
2023/07/29 06:04:00;;;;;;;;;;;22.50;99.90;;;;;;6017093;23;19925;-73
2023/07/29 06:06:26;;;;;;;;;;;22.60;99.90;;;;;;6015792;23;20302;-76
2023/07/29 06:08:51;;;;;;;;;;;22.70;99.90;;;;;;6013145;23;20396;-73
2023/07/29 06:11:17;;;;;;;;;;;22.70;99.90;;;;;;6022746;23;19921;-73
2023/07/29 06:13:42;;;;;;;;;;;22.80;99.90;;;;;;6024383;23;20260;-73
2023/07/29 06:16:08;;;;;;;;;;;22.90;99.90;;;;;;6023753;23;19958;-72
2023/07/29 06:18:33;;;;;;;;;;;23.00;99.90;;;;;;6026168;23;19968;-73
2023/07/29 06:20:59;;;;;;;;;;;23.10;99.90;;;;;;6023164;23;19928;-77
2023/07/29 06:23:24;;;;;;;;;;;23.30;99.90;;;;;;6026659;23;19935;-81
2023/07/29 06:25:50;;;;;;;;;;;23.30;99.90;;;;;;6026927;23;19932;-79
2023/07/29 06:28:15;;;;;;;;;;;23.30;99.90;;;;;;6024395;23;19932;-78
2023/07/29 06:30:41;;;;;;;;;;;23.40;99.90;;;;;;5996809;23;20017;-73
2023/07/29 06:33:06;;;;;;;;;;;23.40;99.90;;;;;;6022402;23;20153;-73
2023/07/29 06:35:32;;;;;;;;;;;23.30;99.90;;;;;;6025112;23;20397;-73
2023/07/29 06:37:57;;;;;;;;;;;23.20;99.90;;;;;;6021956;23;19993;-72
2023/07/29 06:40:23;;;;;;;;;;;23.10;99.90;;;;;;6023169;23;19949;-73
2023/07/29 06:42:48;;;;;;;;;;;23.10;99.90;;;;;;6022651;23;20208;-81
2023/07/29 06:45:15;;;;;;;;;;;23.10;99.90;;;;;;6023866;23;19966;-82
2023/07/29 06:47:41;;;;;;;;;;;23.20;99.90;;;;;;6023241;23;19926;-83
2023/07/29 06:50:06;;;;;;;;;;;23.30;99.90;;;;;;6023599;23;19928;-74
2023/07/29 06:52:32;;;;;;;;;;;23.30;99.90;;;;;;6022352;23;19986;-77
2023/07/29 06:54:58;;;;;;;;;;;23.30;99.90;;;;;;6021578;23;20605;-68
2023/07/29 06:57:23;;;;;;;;;;;23.20;99.90;;;;;;6021788;23;19956;-67
2023/07/29 06:59:49;;;;;;;;;;;23.20;99.90;;;;;;6011633;23;20013;-69
2023/07/29 07:02:14;;;;;;;;;;;23.20;99.90;;;;;;6018882;23;19957;-72
2023/07/29 07:04:40;;;;;;;;;;;23.20;99.90;;;;;;6020865;23;19938;-71
2023/07/29 07:07:05;;;;;;;;;;;23.30;99.90;;;;;;6021805;23;20671;-71
2023/07/29 07:09:31;;;;;;;;;;;23.40;99.90;;;;;;6017504;23;20019;-71
2023/07/29 07:11:56;;;;;;;;;;;23.60;99.90;;;;;;6011269;23;20834;-72
2023/07/29 07:14:22;;;;;;;;;;;23.60;99.90;;;;;;6017796;23;19975;-71
2023/07/29 07:16:47;;;;;;;;;;;23.60;99.90;;;;;;6017834;23;20319;-74
2023/07/29 07:19:13;;;;;;;;;;;23.70;99.90;;;;;;6020923;23;19935;-72
2023/07/29 07:21:38;;;;;;;;;;;23.70;99.90;;;;;;6023546;23;19996;-73
2023/07/29 07:24:04;;;;;;;;;;;23.80;99.90;;;;;;6023791;23;20601;-72
2023/07/29 07:26:29;;;;;;;;;;;23.80;99.90;;;;;;6024275;23;20014;-75
2023/07/29 07:28:55;;;;;;;;;;;23.90;99.90;;;;;;6015624;23;19946;-75
2023/07/29 07:31:20;;;;;;;;;;;24.00;99.90;;;;;;6019097;23;20339;-73
2023/07/29 07:33:46;;;;;;;;;;;24.00;99.90;;;;;;6016953;23;19954;-73
2023/07/29 07:36:11;;;;;;;;;;;24.10;99.90;;;;;;6021727;23;19921;-74
2023/07/29 07:38:37;;;;;;;;;;;24.10;99.90;;;;;;5997256;23;19952;-67
2023/07/29 07:41:02;;;;;;;;;;;24.00;99.90;;;;;;6020599;23;19923;-74
2023/07/29 07:43:28;;;;;;;;;;;23.90;99.90;;;;;;5992626;23;19957;-73
2023/07/29 07:46:00;;;;;;;;;;;23.90;99.90;;;;;;6017155;23;19950;-73
2023/07/29 07:48:26;;;;;;;;;;;23.80;99.90;;;;;;6018207;23;19937;-73
2023/07/29 07:50:52;;;;;;;;;;;23.80;99.90;;;;;;6019425;23;19926;-73
2023/07/29 07:53:17;;;;;;;;;;;23.80;99.90;;;;;;6020294;23;19947;-73
2023/07/29 07:55:43;;;;;;;;;;;23.80;99.90;;;;;;6020981;23;19934;-73
2023/07/29 07:58:08;;;;;;;;;;;23.80;99.90;;;;;;6018662;23;20383;-73
2023/07/29 08:00:34;;;;;;;;;;;23.90;99.90;;;;;;6026614;23;19931;-73
2023/07/29 08:02:59;;;;;;;;;;;24.10;99.90;;;;;;6021890;23;20046;-73
2023/07/29 08:05:25;;;;;;;;;;;24.10;99.90;;;;;;6018235;23;19965;-74
2023/07/29 08:07:50;;;;;;;;;;;24.10;99.90;;;;;;6018173;23;19933;-75
2023/07/29 08:10:16;;;;;;;;;;;24.20;99.90;;;;;;6017394;23;20032;-74
2023/07/29 08:12:41;;;;;;;;;;;24.30;99.90;;;;;;6019792;23;20724;-72
2023/07/29 08:15:07;;;;;;;;;;;24.50;99.90;;;;;;6019967;23;19944;-68
2023/07/29 08:17:32;;;;;;;;;;;24.60;99.90;;;;;;6020532;23;20321;-68
2023/07/29 08:19:58;;;;;;;;;;;24.70;99.90;;;;;;6019891;23;19923;-68
2023/07/29 08:22:23;;;;;;;;;;;24.80;99.90;;;;;;6015388;23;19952;-68
2023/07/29 08:24:49;;;;;;;;;;;24.90;99.90;;;;;;6017366;23;19964;-80
2023/07/29 08:27:14;;;;;;;;;;;25.00;99.90;;;;;;6022069;23;19928;-78
2023/07/29 08:29:40;;;;;;;;;;;25.00;99.90;;;;;;6019625;23;20479;-80
2023/07/29 08:32:05;;;;;;;;;;;25.10;99.90;;;;;;6023541;23;19933;-76
2023/07/29 08:34:31;;;;;;;;;;;25.30;99.90;;;;;;6018783;23;20272;-77
2023/07/29 08:36:56;;;;;;;;;;;25.40;99.90;;;;;;6021005;23;19949;-76
2023/07/29 08:39:22;;;;;;;;;;;25.40;99.90;;;;;;6020506;23;20010;-78
2023/07/29 08:42:20;;;;;;;;;;;25.50;99.90;;;;;;6044850;23;19964;-78
2023/07/29 08:44:48;;;;;;;;;;;25.50;99.90;;;;;;5957670;23;19964;-77
2023/07/29 08:47:14;;;;;;;;;;;25.50;99.90;;;;;;6024355;23;19924;-79
2023/07/29 08:49:40;;;;;;;;;;;25.50;99.90;;;;;;6023262;23;19940;-79
2023/07/29 08:52:07;;;;;;;;;;;25.40;99.90;;;;;;6023518;23;19932;-80
2023/07/29 08:54:33;;;;;;;;;;;25.40;99.90;;;;;;6022340;23;20632;-68
2023/07/29 08:56:59;;;;;;;;;;;25.40;99.90;;;;;;6017791;23;19949;-68
2023/07/29 08:59:25;;;;;;;;;;;25.40;99.90;;;;;;6017116;23;19932;-69
2023/07/29 09:01:52;;;;;;;;;;;25.50;99.90;;;;;;6017305;23;19930;-68
2023/07/29 09:04:18;;;;;;;;;;;25.50;99.90;;;;;;6019155;23;20305;-68
2023/07/29 09:06:44;;;;;;;;;;;25.60;99.90;;;;;;6021582;23;19927;-68
2023/07/29 09:09:09;;;;;;;;;;;25.60;99.90;;;;;;6018108;23;19924;-68
2023/07/29 09:11:35;;;;;;;;;;;25.60;99.90;;;;;;6012371;23;20347;-68
2023/07/29 09:14:00;;;;;;;;;;;25.60;99.90;;;;;;6012805;23;20326;-68
2023/07/29 09:16:26;;;;;;;;;;;25.70;99.90;;;;;;6020062;23;19934;-68
2023/07/29 09:18:52;;;;;;;;;;;25.80;99.90;;;;;;6018505;23;20033;-68
2023/07/29 09:21:22;;;;;;;;;;;26.00;99.90;;;;;;6022009;23;20354;-68
2023/07/29 09:23:49;;;;;;;;;;;26.20;99.90;;;;;;6020909;23;19931;-68
2023/07/29 09:26:21;;;;;;;;;;;26.30;99.90;;;;;;6020719;23;19928;-68
2023/07/29 09:28:51;;;;;;;;;;;26.20;99.90;;;;;;6016869;23;19924;-78
2023/07/29 09:31:19;;;;;;;;;;;26.10;99.90;;;;;;6017606;23;19931;-68
2023/07/29 09:33:44;;;;;;;;;;;26.10;99.90;;;;;;6021003;23;19952;-68
2023/07/29 09:36:10;;;;;;;;;;;26.10;99.90;;;;;;6020101;23;19923;-67
2023/07/29 09:38:36;;;;;;;;;;;26.00;99.90;;;;;;6016655;23;20557;-67
2023/07/29 09:41:01;;;;;;;;;;;25.90;99.90;;;;;;6019830;23;20472;-67
2023/07/29 09:43:31;;;;;;;;;;;25.90;99.90;;;;;;6011927;23;20412;-67
2023/07/29 09:46:01;;;;;;;;;;;26.00;99.90;;;;;;6018926;23;19960;-67
2023/07/29 09:48:28;;;;;;;;;;;26.20;99.90;;;;;;6018648;23;20029;-67
2023/07/29 09:50:54;;;;;;;;;;;26.40;99.90;;;;;;5996604;23;19950;-67
2023/07/29 09:53:20;;;;;;;;;;;26.40;99.90;;;;;;6022945;23;20064;-67
2023/07/29 09:55:46;;;;;;;;;;;26.40;99.90;;;;;;6017689;23;20386;-67
2023/07/29 09:58:12;;;;;;;;;;;26.40;99.90;;;;;;6014729;23;20097;-67
2023/07/29 10:00:38;;;;;;;;;;;26.30;99.90;;;;;;6019462;23;19987;-67
2023/07/29 10:03:04;;;;;;;;;;;26.20;99.90;;;;;;6024056;23;19934;-67
2023/07/29 10:05:30;;;;;;;;;;;26.10;99.90;;;;;;6023462;23;19930;-67
2023/07/29 10:07:56;;;;;;;;;;;26.10;99.90;;;;;;6023038;23;19986;-76
2023/07/29 10:10:21;;;;;;;;;;;26.10;99.90;;;;;;6022516;23;20604;-77
2023/07/29 10:12:47;;;;;;;;;;;26.20;99.90;;;;;;6023920;23;19928;-77
2023/07/29 10:15:13;;;;;;;;;;;26.30;99.90;;;;;;6020885;23;19929;-77
2023/07/29 10:17:39;;;;;;;;;;;26.30;99.90;;;;;;6022740;23;19980;-77
2023/07/29 10:20:06;;;;;;;;;;;26.30;99.90;;;;;;6020394;23;19964;-78
2023/07/29 10:22:39;;;;;;;;;;;26.40;99.90;;;;;;6023959;23;20018;-78
2023/07/29 10:25:07;;;;;;;;;;;26.50;99.90;;;;;;6020880;23;19926;-67
2023/07/29 10:27:36;;;;;;;;;;;26.70;99.90;;;;;;6020240;23;19930;-68
2023/07/29 10:30:02;;;;;;;;;;;26.80;99.90;;;;;;6015715;23;19982;-66
2023/07/29 10:32:28;;;;;;;;;;;26.80;99.90;;;;;;6011697;23;19961;-68
2023/07/29 10:34:53;;;;;;;;;;;26.70;99.90;;;;;;6017083;23;19943;-69
2023/07/29 10:37:19;;;;;;;;;;;26.60;99.90;;;;;;6022427;23;20252;-67
2023/07/29 10:39:52;;;;;;;;;;;26.60;99.90;;;;;;6019045;23;20377;-68
2023/07/29 10:42:18;;;;;;;;;;;26.60;99.90;;;;;;6019699;23;19937;-68
2023/07/29 10:44:43;;;;;;;;;;;26.70;99.90;;;;;;6018418;23;19952;-85
2023/07/29 10:47:12;;;;;;;;;;;26.70;99.90;;;;;;6022557;23;20406;-84
2023/07/29 10:49:41;;;;;;;;;;;26.70;99.90;;;;;;6022379;23;19927;-82
2023/07/29 10:52:07;;;;;;;;;;;26.80;99.90;;;;;;6018137;23;20357;-84
2023/07/29 10:55:02;;;;;;;;;;;26.80;99.90;;;;;;6021999;23;19929;-83
2023/07/29 10:57:30;;;;;;;;;;;26.90;99.90;;;;;;5996476;23;19948;-78
2023/07/29 10:59:56;;;;;;;;;;;26.90;99.90;;;;;;6022222;23;20755;-80
2023/07/29 11:02:27;;;;;;;;;;;26.90;99.90;;;;;;6021507;23;20004;-79
2023/07/29 11:04:53;;;;;;;;;;;26.90;99.90;;;;;;6019677;23;19922;-79
2023/07/29 11:07:23;;;;;;;;;;;27.10;99.90;;;;;;6019681;23;19956;-79
2023/07/29 11:09:49;;;;;;;;;;;26.90;99.90;;;;;;6019694;23;19927;-79
2023/07/29 11:12:33;;;;;;;;;;;27.00;99.90;;;;;;6019610;23;19928;-79
2023/07/29 11:15:02;;;;;;;;;;;27.20;99.90;;;;;;6023847;23;19934;-80
2023/07/29 11:17:29;;;;;;;;;;;27.20;99.90;;;;;;6021890;23;19952;-80
2023/07/29 11:19:55;;;;;;;;;;;27.00;99.90;;;;;;6022357;23;20026;-70
2023/07/29 11:22:21;;;;;;;;;;;27.00;99.90;;;;;;6021697;23;20458;-79
2023/07/29 11:24:46;;;;;;;;;;;27.10;99.90;;;;;;6017884;23;19931;-79
2023/07/29 11:27:12;;;;;;;;;;;27.20;99.90;;;;;;6021118;23;19923;-80
2023/07/29 11:29:37;;;;;;;;;;;27.30;99.90;;;;;;6018613;23;20258;-78
2023/07/29 11:32:03;;;;;;;;;;;27.40;99.90;;;;;;6015051;23;20255;-79
2023/07/29 11:34:32;;;;;;;;;;;27.40;99.90;;;;;;6022507;23;20087;-80
2023/07/29 11:36:57;;;;;;;;;;;27.40;99.90;;;;;;6019633;23;20736;-79
2023/07/29 11:39:23;;;;;;;;;;;27.40;99.90;;;;;;6014712;23;20024;-70
2023/07/29 11:41:48;;;;;;;;;;;27.40;99.90;;;;;;6020382;23;19937;-70
2023/07/29 11:44:17;;;;;;;;;;;27.20;99.90;;;;;;6017425;23;20066;-70
2023/07/29 11:46:43;;;;;;;;;;;27.10;99.90;;;;;;6016922;23;20703;-69
2023/07/29 11:49:09;;;;;;;;;;;27.20;99.90;;;;;;6018236;23;19952;-70
2023/07/29 11:51:35;;;;;;;;;;;27.20;99.90;;;;;;5995950;23;19935;-67
2023/07/29 11:54:00;;;;;;;;;;;27.20;99.90;;;;;;6021523;23;20731;-70
2023/07/29 11:56:26;;;;;;;;;;;27.30;99.90;;;;;;6020701;23;20292;-70
2023/07/29 11:58:53;;;;;;;;;;;27.30;99.90;;;;;;6018421;23;20406;-68
2023/07/29 12:01:18;;;;;;;;;;;27.40;99.90;;;;;;6016319;23;19950;-68
2023/07/29 12:03:44;;;;;;;;;;;27.50;99.90;;;;;;5990395;23;19968;-70
2023/07/29 12:06:10;;;;;;;;;;;27.60;99.90;;;;;;6016384;23;19921;-70
2023/07/29 12:08:36;;;;;;;;;;;27.60;99.90;;;;;;6011793;23;19927;-69
2023/07/29 12:11:01;;;;;;;;;;;27.70;99.90;;;;;;6015211;23;20391;-70
2023/07/29 12:13:27;;;;;;;;;;;27.70;99.90;;;;;;6015125;23;19972;-69
2023/07/29 12:16:00;;;;;;;;;;;27.80;99.90;;;;;;5991967;23;20370;-75
2023/07/29 12:18:32;;;;;;;;;;;27.80;99.90;;;;;;6012147;23;20313;-76
2023/07/29 12:20:58;;;;;;;;;;;27.80;99.90;;;;;;6006804;23;20270;-78
2023/07/29 12:23:26;;;;;;;;;;;27.80;99.90;;;;;;6013470;23;20339;-77
2023/07/29 12:25:57;;;;;;;;;;;27.80;99.90;;;;;;6013235;23;20237;-77
2023/07/29 12:28:22;;;;;;;;;;;27.70;99.90;;;;;;6016360;23;19934;-76
2023/07/29 12:30:48;;;;;;;;;;;27.70;99.90;;;;;;6016250;23;19979;-77
2023/07/29 12:33:29;;;;;;;;;;;27.70;99.90;;;;;;6016727;23;20655;-74
2023/07/29 12:35:55;;;;;;;;;;;27.60;99.90;;;;;;6018988;23;20342;-73
2023/07/29 12:38:21;;;;;;;;;;;27.30;99.90;;;;;;6020086;23;19993;-73
2023/07/29 12:40:46;;;;;;;;;;;27.30;99.90;;;;;;6019842;23;19935;-73
2023/07/29 12:43:12;;;;;;;;;;;27.40;99.90;;;;;;6016046;23;19958;-75
2023/07/29 12:45:41;;;;;;;;;;;27.60;99.90;;;;;;6021885;23;20718;-73
2023/07/29 12:48:07;;;;;;;;;;;27.70;99.90;;;;;;6018356;23;19926;-74
2023/07/29 12:50:32;;;;;;;;;;;27.90;99.90;;;;;;6019208;23;20591;-73
2023/07/29 12:52:58;;;;;;;;;;;28.00;99.90;;;;;;6017771;23;20618;-70
2023/07/29 12:55:23;;;;;;;;;;;28.20;99.90;;;;;;5995492;23;20302;-70
2023/07/29 12:57:49;;;;;;;;;;;28.20;99.90;;;;;;6020449;23;20434;-71
2023/07/29 13:00:15;;;;;;;;;;;28.00;99.90;;;;;;6015830;23;20009;-72
2023/07/29 13:02:40;;;;;;;;;;;27.90;99.90;;;;;;6020443;23;19924;-71
2023/07/29 13:05:09;;;;;;;;;;;27.80;99.90;;;;;;6017024;23;19932;-71
2023/07/29 13:07:34;;;;;;;;;;;27.90;99.90;;;;;;6018384;23;19931;-71
2023/07/29 13:10:00;;;;;;;;;;;27.90;99.90;;;;;;6017698;23;19910;-70
2023/07/29 13:12:25;;;;;;;;;;;27.90;99.90;;;;;;6020178;23;19923;-73
2023/07/29 13:14:51;;;;;;;;;;;27.90;99.90;;;;;;6016622;23;19970;-72
2023/07/29 13:17:16;;;;;;;;;;;28.00;99.80;;;;;;5992698;23;20816;-72
2023/07/29 13:19:42;;;;;;;;;;;28.10;99.90;;;;;;6020654;23;19921;-74
2023/07/29 13:22:07;;;;;;;;;;;28.20;99.90;;;;;;6021355;23;20754;-74
2023/07/29 13:24:33;;;;;;;;;;;28.30;99.90;;;;;;6021530;23;19925;-73
2023/07/29 13:26:59;;;;;;;;;;;28.30;99.90;;;;;;6022864;23;20259;-71
2023/07/29 13:29:24;;;;;;;;;;;28.30;99.90;;;;;;6012577;23;19926;-71
2023/07/29 13:31:50;;;;;;;;;;;28.30;99.90;;;;;;6017940;23;19932;-71
2023/07/29 13:34:15;;;;;;;;;;;28.20;99.90;;;;;;6018861;23;19989;-70
2023/07/29 13:36:41;;;;;;;;;;;28.20;99.90;;;;;;6021165;23;20312;-70
2023/07/29 13:39:06;;;;;;;;;;;28.20;99.90;;;;;;6019048;23;20016;-70
2023/07/29 13:41:32;;;;;;;;;;;28.20;99.90;;;;;;6023477;23;19923;-70
2023/07/29 13:43:57;;;;;;;;;;;28.20;99.90;;;;;;6019557;23;20320;-70
2023/07/29 13:46:23;;;;;;;;;;;28.20;99.90;;;;;;6021916;23;20008;-70
2023/07/29 13:48:48;;;;;;;;;;;28.30;99.90;;;;;;6021411;23;20334;-70
2023/07/29 13:51:14;;;;;;;;;;;28.30;99.90;;;;;;6020444;23;20677;-70
2023/07/29 13:53:40;;;;;;;;;;;28.20;99.90;;;;;;6019311;23;20286;-71
2023/07/29 13:56:05;;;;;;;;;;;28.30;99.90;;;;;;6022458;23;19925;-70
2023/07/29 13:58:30;;;;;;;;;;;28.30;99.70;;;;;;6018161;23;20034;-70
2023/07/29 14:00:56;;;;;;;;;;;28.20;99.90;;;;;;6021725;23;19934;-71
2023/07/29 14:03:22;;;;;;;;;;;28.20;99.10;;;;;;6019964;23;19936;-70
2023/07/29 14:05:47;;;;;;;;;;;28.20;99.90;;;;;;6021744;23;19953;-70
2023/07/29 14:08:12;;;;;;;;;;;28.20;99.30;;;;;;6019395;23;19933;-70
2023/07/29 14:10:38;;;;;;;;;;;28.20;99.90;;;;;;6021013;23;19956;-71